sensor_id;sensor_type;location;lat;lon;timestamp;P1;durP1;ratioP1;P2;durP2;ratioP2
46355;SDS011;32066;49.474;11.106;2023-07-31T00:01:02;7.70;;;1.90;;
46355;SDS011;32066;49.474;11.106;2023-07-31T00:03:31;7.00;;;1.98;;
46355;SDS011;32066;49.474;11.106;2023-07-31T00:05:59;8.63;;;2.22;;
46355;SDS011;32066;49.474;11.106;2023-07-31T00:08:28;6.28;;;1.85;;
46355;SDS011;32066;49.474;11.106;2023-07-31T00:10:57;7.80;;;1.98;;
46355;SDS011;32066;49.474;11.106;2023-07-31T00:13:25;7.65;;;2.13;;
46355;SDS011;32066;49.474;11.106;2023-07-31T00:15:56;6.90;;;2.03;;
46355;SDS011;32066;49.474;11.106;2023-07-31T00:18:25;8.27;;;2.22;;
46355;SDS011;32066;49.474;11.106;2023-07-31T00:20:54;7.60;;;1.83;;
46355;SDS011;32066;49.474;11.106;2023-07-31T00:23:22;7.55;;;1.95;;
46355;SDS011;32066;49.474;11.106;2023-07-31T00:25:51;9.25;;;2.33;;
46355;SDS011;32066;49.474;11.106;2023-07-31T00:28:19;6.82;;;2.17;;
46355;SDS011;32066;49.474;11.106;2023-07-31T00:30:48;6.97;;;1.70;;
46355;SDS011;32066;49.474;11.106;2023-07-31T00:33:19;8.55;;;2.30;;
46355;SDS011;32066;49.474;11.106;2023-07-31T00:35:48;5.68;;;1.88;;
46355;SDS011;32066;49.474;11.106;2023-07-31T00:38:17;7.10;;;2.13;;
46355;SDS011;32066;49.474;11.106;2023-07-31T00:40:46;9.05;;;1.88;;
46355;SDS011;32066;49.474;11.106;2023-07-31T00:43:15;5.80;;;1.70;;
46355;SDS011;32066;49.474;11.106;2023-07-31T00:45:44;9.15;;;2.13;;
46355;SDS011;32066;49.474;11.106;2023-07-31T00:48:14;6.82;;;1.80;;
46355;SDS011;32066;49.474;11.106;2023-07-31T00:50:45;5.00;;;1.95;;
46355;SDS011;32066;49.474;11.106;2023-07-31T00:53:14;5.28;;;1.60;;
46355;SDS011;32066;49.474;11.106;2023-07-31T00:55:43;5.18;;;1.77;;
46355;SDS011;32066;49.474;11.106;2023-07-31T00:58:12;5.80;;;1.55;;
46355;SDS011;32066;49.474;11.106;2023-07-31T01:00:41;5.85;;;1.70;;
46355;SDS011;32066;49.474;11.106;2023-07-31T01:03:10;7.70;;;1.90;;
46355;SDS011;32066;49.474;11.106;2023-07-31T01:05:39;9.90;;;1.95;;
46355;SDS011;32066;49.474;11.106;2023-07-31T01:08:18;7.60;;;1.77;;
46355;SDS011;32066;49.474;11.106;2023-07-31T01:10:55;6.63;;;1.60;;
46355;SDS011;32066;49.474;11.106;2023-07-31T01:13:27;5.85;;;1.58;;
46355;SDS011;32066;49.474;11.106;2023-07-31T01:15:56;6.47;;;1.90;;
46355;SDS011;32066;49.474;11.106;2023-07-31T01:18:26;7.47;;;1.90;;
46355;SDS011;32066;49.474;11.106;2023-07-31T01:20:58;8.02;;;1.80;;
46355;SDS011;32066;49.474;11.106;2023-07-31T01:23:35;5.53;;;1.80;;
46355;SDS011;32066;49.474;11.106;2023-07-31T01:26:23;9.43;;;2.15;;
46355;SDS011;32066;49.474;11.106;2023-07-31T01:28:56;7.25;;;1.90;;
46355;SDS011;32066;49.474;11.106;2023-07-31T01:31:29;5.40;;;1.80;;
46355;SDS011;32066;49.474;11.106;2023-07-31T01:34:00;5.78;;;1.70;;
46355;SDS011;32066;49.474;11.106;2023-07-31T01:36:30;5.88;;;2.05;;
46355;SDS011;32066;49.474;11.106;2023-07-31T01:38:59;8.63;;;2.03;;
46355;SDS011;32066;49.474;11.106;2023-07-31T01:41:32;7.38;;;1.70;;
46355;SDS011;32066;49.474;11.106;2023-07-31T01:44:00;10.13;;;2.33;;
46355;SDS011;32066;49.474;11.106;2023-07-31T01:46:29;4.97;;;1.80;;
46355;SDS011;32066;49.474;11.106;2023-07-31T01:48:58;7.20;;;2.42;;
46355;SDS011;32066;49.474;11.106;2023-07-31T01:51:27;5.13;;;1.98;;
46355;SDS011;32066;49.474;11.106;2023-07-31T01:53:59;6.30;;;1.90;;
46355;SDS011;32066;49.474;11.106;2023-07-31T01:56:27;5.75;;;1.60;;
46355;SDS011;32066;49.474;11.106;2023-07-31T01:58:59;7.00;;;2.47;;
46355;SDS011;32066;49.474;11.106;2023-07-31T02:01:27;7.05;;;2.40;;
46355;SDS011;32066;49.474;11.106;2023-07-31T02:03:56;6.15;;;1.80;;
46355;SDS011;32066;49.474;11.106;2023-07-31T02:06:25;6.80;;;1.70;;
46355;SDS011;32066;49.474;11.106;2023-07-31T02:08:53;5.60;;;1.80;;
46355;SDS011;32066;49.474;11.106;2023-07-31T02:11:22;7.32;;;1.83;;
46355;SDS011;32066;49.474;11.106;2023-07-31T02:13:51;7.20;;;1.60;;
46355;SDS011;32066;49.474;11.106;2023-07-31T02:16:22;4.40;;;1.80;;
46355;SDS011;32066;49.474;11.106;2023-07-31T02:18:51;5.10;;;1.88;;
46355;SDS011;32066;49.474;11.106;2023-07-31T02:21:19;7.35;;;2.17;;
46355;SDS011;32066;49.474;11.106;2023-07-31T02:23:48;6.05;;;1.90;;
46355;SDS011;32066;49.474;11.106;2023-07-31T02:26:18;5.35;;;1.98;;
46355;SDS011;32066;49.474;11.106;2023-07-31T02:28:46;8.30;;;2.05;;
46355;SDS011;32066;49.474;11.106;2023-07-31T02:31:15;8.75;;;2.13;;
46355;SDS011;32066;49.474;11.106;2023-07-31T02:33:47;6.13;;;1.90;;
46355;SDS011;32066;49.474;11.106;2023-07-31T02:36:15;4.30;;;1.65;;
46355;SDS011;32066;49.474;11.106;2023-07-31T02:38:44;7.35;;;2.40;;
46355;SDS011;32066;49.474;11.106;2023-07-31T02:41:13;5.03;;;1.77;;
46355;SDS011;32066;49.474;11.106;2023-07-31T02:43:41;6.90;;;1.75;;
46355;SDS011;32066;49.474;11.106;2023-07-31T02:46:10;7.85;;;1.73;;
46355;SDS011;32066;49.474;11.106;2023-07-31T02:48:40;6.32;;;2.17;;
46355;SDS011;32066;49.474;11.106;2023-07-31T02:51:11;5.80;;;1.90;;
46355;SDS011;32066;49.474;11.106;2023-07-31T02:53:39;5.32;;;1.85;;
46355;SDS011;32066;49.474;11.106;2023-07-31T02:56:08;6.88;;;2.28;;
46355;SDS011;32066;49.474;11.106;2023-07-31T02:58:37;7.20;;;2.55;;
46355;SDS011;32066;49.474;11.106;2023-07-31T03:01:05;5.22;;;2.05;;
46355;SDS011;32066;49.474;11.106;2023-07-31T03:03:35;6.13;;;2.00;;
46355;SDS011;32066;49.474;11.106;2023-07-31T03:06:04;5.07;;;2.05;;
46355;SDS011;32066;49.474;11.106;2023-07-31T03:08:35;6.00;;;2.10;;
46355;SDS011;32066;49.474;11.106;2023-07-31T03:11:04;5.78;;;2.40;;
46355;SDS011;32066;49.474;11.106;2023-07-31T03:13:32;6.97;;;2.25;;
46355;SDS011;32066;49.474;11.106;2023-07-31T03:16:01;6.15;;;2.13;;
46355;SDS011;32066;49.474;11.106;2023-07-31T03:18:30;7.90;;;2.60;;
46355;SDS011;32066;49.474;11.106;2023-07-31T03:20:59;7.22;;;1.80;;
46355;SDS011;32066;49.474;11.106;2023-07-31T03:23:27;6.40;;;2.10;;
46355;SDS011;32066;49.474;11.106;2023-07-31T03:25:59;4.38;;;1.80;;
46355;SDS011;32066;49.474;11.106;2023-07-31T03:28:29;6.38;;;2.15;;
46355;SDS011;32066;49.474;11.106;2023-07-31T03:30:58;6.03;;;2.03;;
46355;SDS011;32066;49.474;11.106;2023-07-31T03:33:29;6.72;;;2.10;;
46355;SDS011;32066;49.474;11.106;2023-07-31T03:35:57;6.25;;;1.92;;
46355;SDS011;32066;49.474;11.106;2023-07-31T03:38:27;6.13;;;2.13;;
46355;SDS011;32066;49.474;11.106;2023-07-31T03:40:55;8.73;;;2.20;;
46355;SDS011;32066;49.474;11.106;2023-07-31T03:43:27;7.80;;;2.10;;
46355;SDS011;32066;49.474;11.106;2023-07-31T03:45:58;6.95;;;1.98;;
46355;SDS011;32066;49.474;11.106;2023-07-31T03:48:31;7.87;;;2.27;;
46355;SDS011;32066;49.474;11.106;2023-07-31T03:50:59;5.35;;;2.30;;
46355;SDS011;32066;49.474;11.106;2023-07-31T03:53:28;4.97;;;1.90;;
46355;SDS011;32066;49.474;11.106;2023-07-31T03:55:59;5.25;;;2.00;;
46355;SDS011;32066;49.474;11.106;2023-07-31T03:58:28;6.10;;;2.10;;
46355;SDS011;32066;49.474;11.106;2023-07-31T04:00:56;6.78;;;1.95;;
46355;SDS011;32066;49.474;11.106;2023-07-31T04:03:25;6.50;;;2.20;;
46355;SDS011;32066;49.474;11.106;2023-07-31T04:05:54;6.05;;;2.15;;
46355;SDS011;32066;49.474;11.106;2023-07-31T04:08:23;5.85;;;1.92;;
46355;SDS011;32066;49.474;11.106;2023-07-31T04:10:52;7.00;;;2.30;;
46355;SDS011;32066;49.474;11.106;2023-07-31T04:13:24;6.32;;;1.70;;
46355;SDS011;32066;49.474;11.106;2023-07-31T04:15:53;5.25;;;2.22;;
46355;SDS011;32066;49.474;11.106;2023-07-31T04:18:24;7.63;;;2.10;;
46355;SDS011;32066;49.474;11.106;2023-07-31T04:20:53;5.38;;;1.98;;
46355;SDS011;32066;49.474;11.106;2023-07-31T04:23:23;7.82;;;2.10;;
46355;SDS011;32066;49.474;11.106;2023-07-31T04:25:52;7.43;;;2.20;;
46355;SDS011;32066;49.474;11.106;2023-07-31T04:28:21;8.90;;;2.72;;
46355;SDS011;32066;49.474;11.106;2023-07-31T04:30:52;8.73;;;2.20;;
46355;SDS011;32066;49.474;11.106;2023-07-31T04:33:20;6.85;;;2.08;;
46355;SDS011;32066;49.474;11.106;2023-07-31T04:35:50;8.35;;;2.22;;
46355;SDS011;32066;49.474;11.106;2023-07-31T04:38:19;10.60;;;2.72;;
46355;SDS011;32066;49.474;11.106;2023-07-31T04:40:49;4.55;;;1.98;;
46355;SDS011;32066;49.474;11.106;2023-07-31T04:43:17;7.07;;;2.22;;
46355;SDS011;32066;49.474;11.106;2023-07-31T04:45:49;6.65;;;2.25;;
46355;SDS011;32066;49.474;11.106;2023-07-31T04:48:19;8.45;;;2.55;;
46355;SDS011;32066;49.474;11.106;2023-07-31T04:50:47;6.93;;;2.40;;
46355;SDS011;32066;49.474;11.106;2023-07-31T04:53:16;6.07;;;2.10;;
46355;SDS011;32066;49.474;11.106;2023-07-31T04:55:45;6.15;;;2.15;;
46355;SDS011;32066;49.474;11.106;2023-07-31T04:58:14;6.75;;;2.10;;
46355;SDS011;32066;49.474;11.106;2023-07-31T05:00:42;6.57;;;2.00;;
46355;SDS011;32066;49.474;11.106;2023-07-31T05:03:13;6.82;;;2.10;;
46355;SDS011;32066;49.474;11.106;2023-07-31T05:05:42;8.10;;;2.25;;
46355;SDS011;32066;49.474;11.106;2023-07-31T05:08:11;7.68;;;2.15;;
46355;SDS011;32066;49.474;11.106;2023-07-31T05:10:39;7.30;;;2.20;;
46355;SDS011;32066;49.474;11.106;2023-07-31T05:13:08;8.43;;;2.20;;
46355;SDS011;32066;49.474;11.106;2023-07-31T05:15:36;7.20;;;2.38;;
46355;SDS011;32066;49.474;11.106;2023-07-31T05:18:05;6.22;;;2.00;;
46355;SDS011;32066;49.474;11.106;2023-07-31T05:20:36;9.27;;;2.60;;
46355;SDS011;32066;49.474;11.106;2023-07-31T05:23:06;6.53;;;2.03;;
46355;SDS011;32066;49.474;11.106;2023-07-31T05:25:35;8.20;;;2.20;;
46355;SDS011;32066;49.474;11.106;2023-07-31T05:28:03;6.50;;;2.20;;
46355;SDS011;32066;49.474;11.106;2023-07-31T05:30:32;5.60;;;1.98;;
46355;SDS011;32066;49.474;11.106;2023-07-31T05:33:01;7.97;;;2.17;;
46355;SDS011;32066;49.474;11.106;2023-07-31T05:35:29;6.57;;;2.38;;
46355;SDS011;32066;49.474;11.106;2023-07-31T05:38:01;6.78;;;2.10;;
46355;SDS011;32066;49.474;11.106;2023-07-31T05:40:31;7.78;;;2.22;;
46355;SDS011;32066;49.474;11.106;2023-07-31T05:43:00;9.35;;;2.40;;
46355;SDS011;32066;49.474;11.106;2023-07-31T05:45:29;9.52;;;2.15;;
46355;SDS011;32066;49.474;11.106;2023-07-31T05:47:57;6.75;;;2.13;;
46355;SDS011;32066;49.474;11.106;2023-07-31T05:50:26;5.57;;;2.05;;
46355;SDS011;32066;49.474;11.106;2023-07-31T05:52:55;6.70;;;2.20;;
46355;SDS011;32066;49.474;11.106;2023-07-31T05:55:39;7.70;;;3.00;;
46355;SDS011;32066;49.474;11.106;2023-07-31T05:58:08;6.15;;;2.15;;
46355;SDS011;32066;49.474;11.106;2023-07-31T06:00:36;7.90;;;2.67;;
46355;SDS011;32066;49.474;11.106;2023-07-31T06:03:06;7.38;;;2.15;;
46355;SDS011;32066;49.474;11.106;2023-07-31T06:05:34;6.50;;;2.10;;
46355;SDS011;32066;49.474;11.106;2023-07-31T06:08:06;9.50;;;2.67;;
46355;SDS011;32066;49.474;11.106;2023-07-31T06:10:34;7.60;;;2.72;;
46355;SDS011;32066;49.474;11.106;2023-07-31T06:13:03;8.10;;;2.25;;
46355;SDS011;32066;49.474;11.106;2023-07-31T06:15:32;7.38;;;2.50;;
46355;SDS011;32066;49.474;11.106;2023-07-31T06:18:01;6.22;;;2.08;;
46355;SDS011;32066;49.474;11.106;2023-07-31T06:20:32;8.07;;;2.30;;
46355;SDS011;32066;49.474;11.106;2023-07-31T06:23:01;6.68;;;2.08;;
46355;SDS011;32066;49.474;11.106;2023-07-31T06:25:32;7.03;;;2.50;;
46355;SDS011;32066;49.474;11.106;2023-07-31T06:28:01;9.68;;;2.35;;
46355;SDS011;32066;49.474;11.106;2023-07-31T06:30:30;5.35;;;2.20;;
46355;SDS011;32066;49.474;11.106;2023-07-31T06:32:58;7.95;;;2.13;;
46355;SDS011;32066;49.474;11.106;2023-07-31T06:35:27;8.93;;;2.85;;
46355;SDS011;32066;49.474;11.106;2023-07-31T06:37:56;8.10;;;2.50;;
46355;SDS011;32066;49.474;11.106;2023-07-31T06:40:24;7.90;;;2.13;;
46355;SDS011;32066;49.474;11.106;2023-07-31T06:42:56;8.00;;;2.53;;
46355;SDS011;32066;49.474;11.106;2023-07-31T06:45:24;6.47;;;2.58;;
46355;SDS011;32066;49.474;11.106;2023-07-31T06:47:53;8.55;;;3.25;;
46355;SDS011;32066;49.474;11.106;2023-07-31T06:50:23;7.20;;;2.70;;
46355;SDS011;32066;49.474;11.106;2023-07-31T06:52:52;9.15;;;2.65;;
46355;SDS011;32066;49.474;11.106;2023-07-31T06:55:20;8.27;;;2.78;;
46355;SDS011;32066;49.474;11.106;2023-07-31T06:57:50;7.65;;;2.50;;
46355;SDS011;32066;49.474;11.106;2023-07-31T07:00:22;9.95;;;2.85;;
46355;SDS011;32066;49.474;11.106;2023-07-31T07:02:51;5.57;;;2.17;;
46355;SDS011;32066;49.474;11.106;2023-07-31T07:05:20;7.75;;;2.58;;
46355;SDS011;32066;49.474;11.106;2023-07-31T07:07:49;6.90;;;2.30;;
46355;SDS011;32066;49.474;11.106;2023-07-31T07:10:18;9.57;;;3.10;;
46355;SDS011;32066;49.474;11.106;2023-07-31T07:12:47;9.63;;;2.42;;
46355;SDS011;32066;49.474;11.106;2023-07-31T07:15:16;8.55;;;2.85;;
46355;SDS011;32066;49.474;11.106;2023-07-31T07:17:48;8.80;;;2.33;;
46355;SDS011;32066;49.474;11.106;2023-07-31T07:20:16;6.30;;;2.60;;
46355;SDS011;32066;49.474;11.106;2023-07-31T07:22:45;6.68;;;2.33;;
46355;SDS011;32066;49.474;11.106;2023-07-31T07:25:14;6.70;;;2.25;;
46355;SDS011;32066;49.474;11.106;2023-07-31T07:27:43;7.07;;;2.40;;
46355;SDS011;32066;49.474;11.106;2023-07-31T07:30:11;5.90;;;2.40;;
46355;SDS011;32066;49.474;11.106;2023-07-31T07:32:51;9.82;;;2.47;;
46355;SDS011;32066;49.474;11.106;2023-07-31T07:35:20;8.95;;;2.50;;
46355;SDS011;32066;49.474;11.106;2023-07-31T07:37:49;6.25;;;2.17;;
46355;SDS011;32066;49.474;11.106;2023-07-31T07:40:18;9.38;;;2.85;;
46355;SDS011;32066;49.474;11.106;2023-07-31T07:42:47;6.22;;;2.45;;
46355;SDS011;32066;49.474;11.106;2023-07-31T07:45:16;7.90;;;2.67;;
46355;SDS011;32066;49.474;11.106;2023-07-31T07:47:44;7.97;;;2.33;;
46355;SDS011;32066;49.474;11.106;2023-07-31T07:50:16;8.68;;;2.88;;
46355;SDS011;32066;49.474;11.106;2023-07-31T07:52:44;6.60;;;2.33;;
46355;SDS011;32066;49.474;11.106;2023-07-31T07:55:13;8.85;;;3.08;;
46355;SDS011;32066;49.474;11.106;2023-07-31T07:57:42;10.75;;;2.70;;
46355;SDS011;32066;49.474;11.106;2023-07-31T08:00:11;10.02;;;2.90;;
46355;SDS011;32066;49.474;11.106;2023-07-31T08:02:42;7.25;;;2.40;;
46355;SDS011;32066;49.474;11.106;2023-07-31T08:05:11;6.78;;;2.47;;
46355;SDS011;32066;49.474;11.106;2023-07-31T08:07:42;8.20;;;2.80;;
46355;SDS011;32066;49.474;11.106;2023-07-31T08:10:10;8.23;;;2.40;;
46355;SDS011;32066;49.474;11.106;2023-07-31T08:12:39;7.15;;;2.53;;
46355;SDS011;32066;49.474;11.106;2023-07-31T08:15:08;7.00;;;2.75;;
46355;SDS011;32066;49.474;11.106;2023-07-31T08:17:37;8.23;;;2.60;;
46355;SDS011;32066;49.474;11.106;2023-07-31T08:20:06;9.98;;;3.08;;
46355;SDS011;32066;49.474;11.106;2023-07-31T08:22:36;12.00;;;2.78;;
46355;SDS011;32066;49.474;11.106;2023-07-31T08:25:08;7.30;;;2.50;;
46355;SDS011;32066;49.474;11.106;2023-07-31T08:27:36;6.82;;;2.58;;
46355;SDS011;32066;49.474;11.106;2023-07-31T08:30:06;8.88;;;3.00;;
46355;SDS011;32066;49.474;11.106;2023-07-31T08:32:35;6.95;;;2.75;;
46355;SDS011;32066;49.474;11.106;2023-07-31T08:35:04;7.82;;;2.78;;
46355;SDS011;32066;49.474;11.106;2023-07-31T08:37:33;7.45;;;2.60;;
46355;SDS011;32066;49.474;11.106;2023-07-31T08:40:02;7.47;;;2.80;;
46355;SDS011;32066;49.474;11.106;2023-07-31T08:42:34;7.63;;;2.63;;
46355;SDS011;32066;49.474;11.106;2023-07-31T08:45:13;8.60;;;2.70;;
46355;SDS011;32066;49.474;11.106;2023-07-31T08:47:44;7.55;;;2.75;;
46355;SDS011;32066;49.474;11.106;2023-07-31T08:50:13;6.85;;;2.70;;
46355;SDS011;32066;49.474;11.106;2023-07-31T08:52:43;12.85;;;2.63;;
46355;SDS011;32066;49.474;11.106;2023-07-31T08:55:12;9.63;;;3.20;;
46355;SDS011;32066;49.474;11.106;2023-07-31T08:57:43;5.93;;;2.50;;
46355;SDS011;32066;49.474;11.106;2023-07-31T09:00:13;7.80;;;2.92;;
46355;SDS011;32066;49.474;11.106;2023-07-31T09:02:45;6.53;;;2.40;;
46355;SDS011;32066;49.474;11.106;2023-07-31T09:05:16;6.28;;;2.40;;
46355;SDS011;32066;49.474;11.106;2023-07-31T09:07:45;6.88;;;2.60;;
46355;SDS011;32066;49.474;11.106;2023-07-31T09:10:15;6.55;;;3.03;;
46355;SDS011;32066;49.474;11.106;2023-07-31T09:12:47;9.18;;;3.00;;
46355;SDS011;32066;49.474;11.106;2023-07-31T09:15:17;7.35;;;2.67;;
46355;SDS011;32066;49.474;11.106;2023-07-31T09:17:46;6.57;;;2.58;;
46355;SDS011;32066;49.474;11.106;2023-07-31T09:20:15;6.25;;;2.50;;
46355;SDS011;32066;49.474;11.106;2023-07-31T09:22:45;6.18;;;2.55;;
46355;SDS011;32066;49.474;11.106;2023-07-31T09:25:15;10.23;;;2.50;;
46355;SDS011;32066;49.474;11.106;2023-07-31T09:27:50;8.00;;;2.17;;
46355;SDS011;32066;49.474;11.106;2023-07-31T09:30:21;6.97;;;2.95;;
46355;SDS011;32066;49.474;11.106;2023-07-31T09:32:50;7.38;;;2.85;;
46355;SDS011;32066;49.474;11.106;2023-07-31T09:35:20;8.05;;;2.50;;
46355;SDS011;32066;49.474;11.106;2023-07-31T09:37:50;10.57;;;2.72;;
46355;SDS011;32066;49.474;11.106;2023-07-31T09:40:29;8.68;;;2.72;;
46355;SDS011;32066;49.474;11.106;2023-07-31T09:43:03;8.65;;;2.75;;
46355;SDS011;32066;49.474;11.106;2023-07-31T09:45:33;6.50;;;2.83;;
46355;SDS011;32066;49.474;11.106;2023-07-31T09:48:06;6.80;;;2.60;;
46355;SDS011;32066;49.474;11.106;2023-07-31T09:50:36;8.88;;;2.63;;
46355;SDS011;32066;49.474;11.106;2023-07-31T09:53:06;9.57;;;2.78;;
46355;SDS011;32066;49.474;11.106;2023-07-31T09:55:36;9.55;;;2.70;;
46355;SDS011;32066;49.474;11.106;2023-07-31T09:58:08;6.75;;;2.80;;
46355;SDS011;32066;49.474;11.106;2023-07-31T10:00:38;7.38;;;2.80;;
46355;SDS011;32066;49.474;11.106;2023-07-31T10:03:08;8.57;;;2.70;;
46355;SDS011;32066;49.474;11.106;2023-07-31T10:05:38;7.65;;;2.67;;
46355;SDS011;32066;49.474;11.106;2023-07-31T10:08:13;7.57;;;3.00;;
46355;SDS011;32066;49.474;11.106;2023-07-31T10:10:43;8.55;;;2.90;;
46355;SDS011;32066;49.474;11.106;2023-07-31T10:13:15;8.43;;;2.90;;
46355;SDS011;32066;49.474;11.106;2023-07-31T10:15:47;6.45;;;2.78;;
46355;SDS011;32066;49.474;11.106;2023-07-31T10:18:16;7.90;;;2.85;;
46355;SDS011;32066;49.474;11.106;2023-07-31T10:20:47;8.13;;;2.72;;
46355;SDS011;32066;49.474;11.106;2023-07-31T10:23:16;8.32;;;2.70;;
46355;SDS011;32066;49.474;11.106;2023-07-31T10:25:45;9.57;;;2.83;;
46355;SDS011;32066;49.474;11.106;2023-07-31T10:28:17;11.32;;;2.40;;
46355;SDS011;32066;49.474;11.106;2023-07-31T10:30:46;5.97;;;2.60;;
46355;SDS011;32066;49.474;11.106;2023-07-31T10:33:15;8.98;;;2.78;;
46355;SDS011;32066;49.474;11.106;2023-07-31T10:35:46;10.20;;;3.30;;
46355;SDS011;32066;49.474;11.106;2023-07-31T10:38:18;6.07;;;2.55;;
46355;SDS011;32066;49.474;11.106;2023-07-31T10:40:47;7.10;;;2.88;;
46355;SDS011;32066;49.474;11.106;2023-07-31T10:43:26;6.72;;;2.45;;
46355;SDS011;32066;49.474;11.106;2023-07-31T10:45:55;8.30;;;2.70;;
46355;SDS011;32066;49.474;11.106;2023-07-31T10:48:24;6.20;;;2.40;;
46355;SDS011;32066;49.474;11.106;2023-07-31T10:51:01;8.32;;;2.47;;
46355;SDS011;32066;49.474;11.106;2023-07-31T10:53:37;8.95;;;2.63;;
46355;SDS011;32066;49.474;11.106;2023-07-31T10:56:07;5.88;;;2.50;;
46355;SDS011;32066;49.474;11.106;2023-07-31T10:58:41;6.25;;;2.60;;
46355;SDS011;32066;49.474;11.106;2023-07-31T11:01:12;5.20;;;2.50;;
46355;SDS011;32066;49.474;11.106;2023-07-31T11:03:41;6.65;;;2.97;;
46355;SDS011;32066;49.474;11.106;2023-07-31T11:06:10;7.72;;;2.60;;
46355;SDS011;32066;49.474;11.106;2023-07-31T11:08:43;8.70;;;2.80;;
46355;SDS011;32066;49.474;11.106;2023-07-31T11:11:13;7.78;;;2.75;;
46355;SDS011;32066;49.474;11.106;2023-07-31T11:13:45;6.38;;;2.47;;
46355;SDS011;32066;49.474;11.106;2023-07-31T11:16:15;7.25;;;2.70;;
46355;SDS011;32066;49.474;11.106;2023-07-31T11:18:46;6.18;;;2.47;;
46355;SDS011;32066;49.474;11.106;2023-07-31T11:21:17;7.28;;;2.70;;
46355;SDS011;32066;49.474;11.106;2023-07-31T11:23:46;8.02;;;2.65;;
46355;SDS011;32066;49.474;11.106;2023-07-31T11:26:15;5.15;;;2.38;;
46355;SDS011;32066;49.474;11.106;2023-07-31T11:28:49;7.28;;;2.72;;
46355;SDS011;32066;49.474;11.106;2023-07-31T11:31:18;6.85;;;2.80;;
46355;SDS011;32066;49.474;11.106;2023-07-31T11:33:47;7.40;;;3.23;;
46355;SDS011;32066;49.474;11.106;2023-07-31T11:36:16;8.30;;;3.03;;
46355;SDS011;32066;49.474;11.106;2023-07-31T11:38:46;6.30;;;2.50;;
46355;SDS011;32066;49.474;11.106;2023-07-31T11:41:15;9.82;;;3.20;;
46355;SDS011;32066;49.474;11.106;2023-07-31T11:43:45;6.13;;;2.67;;
46355;SDS011;32066;49.474;11.106;2023-07-31T11:46:16;8.10;;;3.50;;
46355;SDS011;32066;49.474;11.106;2023-07-31T11:48:45;9.90;;;2.95;;
46355;SDS011;32066;49.474;11.106;2023-07-31T11:51:14;7.63;;;3.13;;
46355;SDS011;32066;49.474;11.106;2023-07-31T11:53:44;7.65;;;3.50;;
46355;SDS011;32066;49.474;11.106;2023-07-31T11:56:16;7.65;;;3.03;;
46355;SDS011;32066;49.474;11.106;2023-07-31T11:58:46;7.75;;;3.00;;
46355;SDS011;32066;49.474;11.106;2023-07-31T12:01:19;6.85;;;2.78;;
46355;SDS011;32066;49.474;11.106;2023-07-31T12:03:50;7.43;;;2.90;;
46355;SDS011;32066;49.474;11.106;2023-07-31T12:06:19;9.43;;;2.97;;
46355;SDS011;32066;49.474;11.106;2023-07-31T12:08:48;8.80;;;3.22;;
46355;SDS011;32066;49.474;11.106;2023-07-31T12:11:17;7.88;;;3.13;;
46355;SDS011;32066;49.474;11.106;2023-07-31T12:13:46;6.53;;;2.80;;
46355;SDS011;32066;49.474;11.106;2023-07-31T12:16:15;11.15;;;3.95;;
46355;SDS011;32066;49.474;11.106;2023-07-31T12:18:48;8.00;;;2.80;;
46355;SDS011;32066;49.474;11.106;2023-07-31T12:21:18;10.07;;;3.10;;
46355;SDS011;32066;49.474;11.106;2023-07-31T12:23:48;7.00;;;2.70;;
46355;SDS011;32066;49.474;11.106;2023-07-31T12:26:18;8.02;;;3.20;;
46355;SDS011;32066;49.474;11.106;2023-07-31T12:28:49;8.52;;;3.47;;
46355;SDS011;32066;49.474;11.106;2023-07-31T12:31:19;7.53;;;3.08;;
46355;SDS011;32066;49.474;11.106;2023-07-31T12:33:52;9.32;;;3.35;;
46355;SDS011;32066;49.474;11.106;2023-07-31T12:36:21;7.82;;;3.38;;
46355;SDS011;32066;49.474;11.106;2023-07-31T12:38:51;8.93;;;3.05;;
46355;SDS011;32066;49.474;11.106;2023-07-31T12:41:21;7.15;;;3.10;;
46355;SDS011;32066;49.474;11.106;2023-07-31T12:43:50;9.00;;;3.17;;
46355;SDS011;32066;49.474;11.106;2023-07-31T12:46:19;6.57;;;3.17;;
46355;SDS011;32066;49.474;11.106;2023-07-31T12:48:47;10.05;;;3.33;;
46355;SDS011;32066;49.474;11.106;2023-07-31T12:51:19;9.63;;;3.40;;
46355;SDS011;32066;49.474;11.106;2023-07-31T12:53:47;7.63;;;3.00;;
46355;SDS011;32066;49.474;11.106;2023-07-31T12:56:16;8.15;;;3.58;;
46355;SDS011;32066;49.474;11.106;2023-07-31T12:58:45;7.55;;;3.05;;
46355;SDS011;32066;49.474;11.106;2023-07-31T13:01:14;8.25;;;3.30;;
46355;SDS011;32066;49.474;11.106;2023-07-31T13:03:42;7.75;;;3.13;;
46355;SDS011;32066;49.474;11.106;2023-07-31T13:06:11;7.47;;;3.20;;
46355;SDS011;32066;49.474;11.106;2023-07-31T13:08:42;8.85;;;4.07;;
46355;SDS011;32066;49.474;11.106;2023-07-31T13:11:11;6.30;;;3.00;;
46355;SDS011;32066;49.474;11.106;2023-07-31T13:13:40;9.07;;;3.17;;
46355;SDS011;32066;49.474;11.106;2023-07-31T13:16:09;7.90;;;3.25;;
46355;SDS011;32066;49.474;11.106;2023-07-31T13:18:37;6.20;;;2.88;;
46355;SDS011;32066;49.474;11.106;2023-07-31T13:21:06;7.20;;;3.00;;
46355;SDS011;32066;49.474;11.106;2023-07-31T13:23:35;6.22;;;2.88;;
46355;SDS011;32066;49.474;11.106;2023-07-31T13:26:07;7.80;;;3.00;;
46355;SDS011;32066;49.474;11.106;2023-07-31T13:28:35;10.00;;;3.17;;
46355;SDS011;32066;49.474;11.106;2023-07-31T13:31:04;7.90;;;3.03;;
46355;SDS011;32066;49.474;11.106;2023-07-31T13:33:33;8.07;;;3.22;;
46355;SDS011;32066;49.474;11.106;2023-07-31T13:36:01;8.57;;;2.88;;
46355;SDS011;32066;49.474;11.106;2023-07-31T13:38:30;7.47;;;3.13;;
46355;SDS011;32066;49.474;11.106;2023-07-31T13:40:59;6.70;;;2.97;;
46355;SDS011;32066;49.474;11.106;2023-07-31T13:43:30;7.50;;;3.53;;
46355;SDS011;32066;49.474;11.106;2023-07-31T13:45:58;6.22;;;2.97;;
46355;SDS011;32066;49.474;11.106;2023-07-31T13:48:32;7.47;;;2.97;;
46355;SDS011;32066;49.474;11.106;2023-07-31T13:51:01;7.78;;;3.10;;
46355;SDS011;32066;49.474;11.106;2023-07-31T13:53:30;6.07;;;2.65;;
46355;SDS011;32066;49.474;11.106;2023-07-31T13:55:59;8.85;;;3.08;;
46355;SDS011;32066;49.474;11.106;2023-07-31T13:58:30;7.22;;;3.30;;
46355;SDS011;32066;49.474;11.106;2023-07-31T14:00:59;8.52;;;3.35;;
46355;SDS011;32066;49.474;11.106;2023-07-31T14:03:28;9.15;;;3.40;;
46355;SDS011;32066;49.474;11.106;2023-07-31T14:05:56;8.27;;;2.78;;
46355;SDS011;32066;49.474;11.106;2023-07-31T14:08:25;5.50;;;2.78;;
46355;SDS011;32066;49.474;11.106;2023-07-31T14:10:54;9.90;;;3.35;;
46355;SDS011;32066;49.474;11.106;2023-07-31T14:13:23;7.35;;;3.20;;
46355;SDS011;32066;49.474;11.106;2023-07-31T14:15:54;9.93;;;3.00;;
46355;SDS011;32066;49.474;11.106;2023-07-31T14:18:23;6.57;;;2.95;;
46355;SDS011;32066;49.474;11.106;2023-07-31T14:20:51;10.23;;;3.30;;
46355;SDS011;32066;49.474;11.106;2023-07-31T14:23:20;7.20;;;3.10;;
46355;SDS011;32066;49.474;11.106;2023-07-31T14:25:49;8.63;;;3.42;;
46355;SDS011;32066;49.474;11.106;2023-07-31T14:28:17;8.52;;;2.90;;
46355;SDS011;32066;49.474;11.106;2023-07-31T14:30:46;7.10;;;3.00;;
46355;SDS011;32066;49.474;11.106;2023-07-31T14:33:18;7.00;;;3.03;;
46355;SDS011;32066;49.474;11.106;2023-07-31T14:35:47;8.02;;;3.20;;
46355;SDS011;32066;49.474;11.106;2023-07-31T14:38:15;10.45;;;3.35;;
46355;SDS011;32066;49.474;11.106;2023-07-31T14:40:44;7.45;;;3.30;;
46355;SDS011;32066;49.474;11.106;2023-07-31T14:43:13;8.50;;;3.50;;
46355;SDS011;32066;49.474;11.106;2023-07-31T14:45:42;7.22;;;3.08;;
46355;SDS011;32066;49.474;11.106;2023-07-31T14:48:11;7.13;;;3.25;;